createdAt,value
2023-02-07T00:01:35.020Z,10.95
2023-02-07T00:04:02.868Z,10.70
2023-02-07T00:06:34.898Z,11.50
2023-02-07T00:09:07.249Z,13.10
2023-02-07T00:11:37.075Z,13.20
2023-02-07T00:14:05.165Z,13.07
2023-02-07T00:16:33.001Z,13.05
2023-02-07T00:19:01.036Z,12.38
2023-02-07T00:21:29.101Z,14.00
2023-02-07T00:23:57.580Z,13.23
2023-02-07T00:26:27.140Z,13.45
2023-02-07T00:28:56.186Z,14.40
2023-02-07T00:31:33.282Z,13.75
2023-02-07T00:34:05.674Z,13.65
2023-02-07T00:36:36.865Z,13.20
2023-02-07T00:39:15.151Z,13.15
2023-02-07T00:41:44.860Z,14.40
2023-02-07T00:44:12.978Z,13.60
2023-02-07T00:46:41.012Z,13.43
2023-02-07T00:49:14.713Z,14.13
2023-02-07T00:51:45.859Z,14.95
2023-02-07T00:54:14.606Z,13.38
2023-02-07T00:56:42.390Z,13.88
2023-02-07T00:59:10.147Z,12.82
2023-02-07T01:01:40.216Z,13.02
2023-02-07T01:04:07.972Z,12.88
2023-02-07T01:06:37.160Z,12.63
2023-02-07T01:09:06.882Z,13.30
2023-02-07T01:11:34.596Z,12.18
2023-02-07T01:14:03.397Z,13.05
2023-02-07T01:16:40.454Z,14.85
2023-02-07T01:19:10.997Z,13.93
2023-02-07T01:21:40.513Z,12.80
2023-02-07T01:24:09.510Z,12.57
2023-02-07T01:26:44.557Z,12.15
2023-02-07T01:29:15.667Z,13.02
2023-02-07T01:31:43.803Z,14.05
2023-02-07T01:34:13.453Z,13.20
2023-02-07T01:36:41.282Z,12.85
2023-02-07T01:39:09.952Z,12.85
2023-02-07T01:41:37.980Z,12.57
2023-02-07T01:44:28.737Z,12.13
2023-02-07T01:46:57.362Z,11.38
2023-02-07T01:49:30.528Z,11.95
2023-02-07T01:52:08.470Z,11.52
2023-02-07T01:54:37.896Z,9.63
2023-02-07T01:57:09.007Z,9.57
2023-02-07T01:59:40.964Z,10.63
2023-02-07T02:02:08.673Z,9.95
2023-02-07T02:04:36.395Z,9.80
2023-02-07T02:07:06.981Z,10.25
2023-02-07T02:09:36.333Z,10.18
2023-02-07T02:12:25.399Z,10.85
2023-02-07T02:15:11.412Z,10.82
2023-02-07T02:20:45.213Z,11.18
2023-02-07T02:23:20.820Z,9.90
2023-02-07T02:28:43.484Z,10.07
2023-02-07T02:32:01.830Z,10.95
2023-02-07T02:35:13.739Z,11.07
2023-02-07T02:38:13.248Z,9.60
2023-02-07T02:40:56.986Z,9.93
2023-02-07T02:43:31.874Z,10.63
2023-02-07T02:46:07.617Z,11.60
2023-02-07T02:48:36.400Z,10.82
2023-02-07T02:51:05.153Z,10.52
2023-02-07T02:53:33.065Z,11.25
2023-02-07T02:56:22.322Z,9.65
2023-02-07T02:59:37.796Z,9.85
2023-02-07T03:02:45.584Z,9.93
2023-02-07T03:05:43.649Z,10.13
2023-02-07T03:08:21.485Z,9.75
2023-02-07T03:11:10.306Z,9.65
2023-02-07T03:14:00.357Z,10.48
2023-02-07T03:17:06.390Z,9.73
2023-02-07T03:20:18.162Z,9.37
2023-02-07T03:22:47.623Z,10.32
2023-02-07T03:25:17.689Z,9.15
2023-02-07T03:27:47.925Z,10.07
2023-02-07T03:30:19.478Z,9.05
2023-02-07T03:32:56.735Z,10.10
2023-02-07T03:36:06.151Z,9.82
2023-02-07T03:38:35.035Z,9.68
2023-02-07T03:41:26.961Z,9.70
2023-02-07T03:43:55.927Z,9.35
2023-02-07T03:46:23.754Z,8.82
2023-02-07T03:48:51.459Z,8.18
2023-02-07T03:51:19.111Z,7.55
2023-02-07T03:53:46.738Z,8.20
2023-02-07T03:56:14.396Z,7.75
2023-02-07T03:58:42.067Z,7.63
2023-02-07T04:01:09.843Z,8.32
2023-02-07T04:03:37.578Z,8.43
2023-02-07T04:06:05.834Z,9.13
2023-02-07T04:08:33.593Z,8.18
2023-02-07T04:11:03.556Z,8.27
2023-02-07T04:13:31.440Z,8.98
2023-02-07T04:15:59.420Z,8.05
2023-02-07T04:18:27.264Z,9.65
2023-02-07T04:21:07.245Z,8.05
2023-02-07T04:23:36.274Z,8.48
2023-02-07T04:26:04.185Z,7.93
2023-02-07T04:28:32.048Z,7.22
2023-02-07T04:30:59.822Z,7.97
2023-02-07T04:33:27.525Z,7.97
2023-02-07T04:36:01.719Z,9.40
2023-02-07T04:38:29.928Z,7.93
2023-02-07T04:41:04.358Z,8.48
2023-02-07T04:43:35.370Z,9.25
2023-02-07T04:46:04.637Z,8.50
2023-02-07T04:48:33.725Z,8.13
2023-02-07T04:51:01.376Z,7.82
2023-02-07T04:53:29.101Z,7.45
2023-02-07T04:55:56.784Z,7.18
2023-02-07T04:58:24.689Z,7.68
2023-02-07T05:00:53.999Z,6.88
2023-02-07T05:03:21.840Z,7.95
2023-02-07T05:05:49.788Z,7.97
2023-02-07T05:08:17.546Z,8.23
2023-02-07T05:10:46.053Z,7.85
2023-02-07T05:13:13.720Z,7.35
2023-02-07T05:15:41.371Z,7.57
2023-02-07T05:18:09.205Z,7.05
2023-02-07T05:20:36.928Z,7.05
2023-02-07T05:23:04.666Z,7.60
2023-02-07T05:25:32.331Z,6.68
2023-02-07T05:28:00.153Z,7.93
2023-02-07T05:30:27.905Z,6.82
2023-02-07T05:33:04.790Z,6.90
2023-02-07T05:35:40.714Z,7.28
2023-02-07T05:38:13.515Z,6.90
2023-02-07T05:40:44.046Z,7.50
2023-02-07T05:43:15.434Z,8.45
2023-02-07T05:45:43.214Z,7.75
2023-02-07T05:48:11.417Z,7.75
2023-02-07T05:50:39.317Z,8.77
2023-02-07T05:53:09.142Z,9.00
2023-02-07T05:55:37.722Z,8.82
2023-02-07T05:58:05.878Z,9.10
2023-02-07T06:00:33.582Z,10.23
2023-02-07T06:03:04.367Z,10.23
2023-02-07T06:05:33.237Z,9.80
2023-02-07T06:08:01.368Z,9.27
2023-02-07T06:10:29.216Z,9.52
2023-02-07T06:12:57.017Z,8.40
2023-02-07T06:15:24.868Z,9.15
2023-02-07T06:17:52.562Z,8.82
2023-02-07T06:20:20.479Z,9.00
2023-02-07T06:22:48.371Z,9.80
2023-02-07T06:25:16.112Z,9.55
2023-02-07T06:27:43.769Z,10.05
2023-02-07T06:30:12.526Z,9.30
2023-02-07T06:32:40.849Z,9.48
2023-02-07T06:35:09.176Z,9.00
2023-02-07T06:37:36.848Z,9.45
2023-02-07T06:40:05.392Z,8.80
2023-02-07T06:42:33.425Z,9.00
2023-02-07T06:45:01.200Z,9.45
2023-02-07T06:47:28.816Z,8.70
2023-02-07T06:49:56.462Z,9.10
2023-02-07T06:52:24.128Z,9.77
2023-02-07T06:54:51.881Z,8.85
2023-02-07T06:57:19.539Z,9.57
2023-02-07T06:59:47.175Z,8.20
2023-02-07T07:02:15.263Z,11.35
2023-02-07T07:04:42.954Z,10.45
2023-02-07T07:07:10.762Z,11.15
2023-02-07T07:09:38.427Z,11.63
2023-02-07T07:12:06.425Z,10.23
2023-02-07T07:14:34.393Z,9.23
2023-02-07T07:17:02.012Z,9.55
2023-02-07T07:19:30.224Z,9.60
2023-02-07T07:21:59.107Z,9.02
2023-02-07T07:24:27.484Z,9.60
2023-02-07T07:26:56.594Z,9.73
2023-02-07T07:29:24.409Z,10.32
2023-02-07T07:31:52.150Z,10.52
2023-02-07T07:34:20.142Z,10.60
2023-02-07T07:36:49.382Z,9.95
2023-02-07T07:39:17.199Z,10.85
2023-02-07T07:41:44.914Z,10.93
2023-02-07T07:44:19.361Z,10.93
2023-02-07T07:46:47.175Z,12.55
2023-02-07T07:49:15.019Z,12.75
2023-02-07T07:51:42.814Z,12.65
2023-02-07T07:54:10.592Z,11.88
2023-02-07T07:56:38.392Z,12.00
2023-02-07T07:59:12.195Z,12.25
2023-02-07T08:01:47.931Z,11.40
2023-02-07T08:04:15.640Z,11.20
2023-02-07T08:06:43.324Z,12.48
2023-02-07T08:09:11.759Z,12.15
2023-02-07T08:11:39.748Z,10.90
2023-02-07T08:14:07.654Z,11.70
2023-02-07T08:16:35.431Z,11.30
2023-02-07T08:19:04.206Z,11.50
2023-02-07T08:21:32.502Z,13.38
2023-02-07T08:24:00.170Z,12.88
2023-02-07T08:26:27.929Z,13.68
2023-02-07T08:28:55.593Z,12.35
2023-02-07T08:31:23.596Z,12.57
2023-02-07T08:33:51.898Z,12.40
2023-02-07T08:36:19.616Z,13.10
2023-02-07T08:38:47.399Z,13.63
2023-02-07T08:41:15.146Z,14.32
2023-02-07T08:43:42.912Z,13.88
2023-02-07T08:46:10.813Z,17.33
2023-02-07T08:48:38.560Z,17.55
2023-02-07T08:51:10.439Z,17.83
2023-02-07T08:53:38.251Z,19.48
2023-02-07T08:56:06.498Z,24.27
2023-02-07T08:58:34.243Z,21.30
2023-02-07T09:01:02.026Z,23.75
2023-02-07T09:03:29.760Z,24.20
2023-02-07T09:05:59.333Z,23.40
2023-02-07T09:08:27.136Z,22.30
2023-02-07T09:10:54.960Z,21.73
2023-02-07T09:13:22.900Z,21.48
2023-02-07T09:15:56.637Z,21.88
2023-02-07T09:18:25.838Z,23.73
2023-02-07T09:20:53.934Z,24.10
2023-02-07T09:23:21.684Z,20.85
2023-02-07T09:25:53.196Z,19.77
2023-02-07T09:28:22.574Z,21.08
2023-02-07T09:30:50.876Z,21.08
2023-02-07T09:33:18.816Z,21.00
2023-02-07T09:35:47.429Z,20.42
2023-02-07T09:38:22.293Z,21.33
2023-02-07T09:40:52.542Z,21.48
2023-02-07T09:43:56.613Z,22.98
2023-02-07T09:46:39.154Z,19.90
2023-02-07T09:49:31.554Z,20.70
2023-02-07T09:52:01.056Z,21.42
2023-02-07T09:54:42.722Z,21.13
2023-02-07T09:57:23.625Z,23.55
2023-02-07T10:00:05.212Z,21.45
2023-02-07T10:03:04.059Z,22.92
2023-02-07T10:05:46.135Z,21.58
2023-02-07T10:08:16.883Z,23.15
2023-02-07T10:11:43.110Z,23.33
2023-02-07T10:14:33.639Z,23.17
2023-02-07T10:17:25.720Z,22.42
2023-02-07T10:20:25.050Z,23.55
2023-02-07T10:22:58.781Z,24.77
2023-02-07T10:25:53.966Z,23.17
2023-02-07T10:29:18.138Z,20.45
2023-02-07T10:31:54.319Z,22.02
2023-02-07T10:34:25.655Z,22.83
2023-02-07T10:36:57.301Z,21.45
2023-02-07T10:39:39.020Z,22.10
2023-02-07T10:42:15.652Z,20.40
2023-02-07T10:44:43.868Z,20.45
2023-02-07T10:47:18.138Z,21.05
2023-02-07T10:49:50.115Z,21.15
2023-02-07T10:52:31.623Z,20.42
2023-02-07T10:55:02.690Z,19.33
2023-02-07T10:57:31.439Z,20.40
2023-02-07T11:00:23.839Z,21.17
2023-02-07T11:03:15.237Z,19.52
2023-02-07T11:06:04.693Z,20.35
2023-02-07T11:08:34.978Z,19.83
2023-02-07T11:11:27.397Z,20.05
2023-02-07T11:13:55.607Z,19.50
2023-02-07T11:16:25.155Z,19.17
2023-02-07T11:19:07.346Z,19.65
2023-02-07T11:21:41.634Z,20.80
2023-02-07T11:24:19.356Z,22.85
2023-02-07T11:27:06.174Z,24.00
2023-02-07T11:29:56.635Z,25.58
2023-02-07T11:32:27.681Z,26.30
2023-02-07T11:35:05.805Z,25.02
2023-02-07T11:37:43.569Z,32.33
2023-02-07T11:40:17.301Z,31.42
2023-02-07T11:42:48.838Z,28.98
2023-02-07T11:45:21.998Z,27.20
2023-02-07T11:47:54.303Z,30.98
2023-02-07T11:50:43.419Z,32.15
2023-02-07T11:53:36.312Z,30.98
2023-02-07T11:56:05.019Z,29.85
2023-02-07T11:58:49.216Z,32.45
2023-02-07T12:01:23.898Z,30.27
2023-02-07T12:04:01.167Z,32.87
2023-02-07T12:06:54.878Z,33.40
2023-02-07T12:09:53.303Z,33.17
2023-02-07T12:12:40.866Z,30.65
2023-02-07T12:15:23.556Z,30.58
2023-02-07T12:18:07.681Z,28.98
2023-02-07T12:20:57.065Z,28.20
2023-02-07T12:23:52.607Z,25.58
2023-02-07T12:26:27.379Z,24.03
2023-02-07T12:29:36.628Z,25.03
2023-02-07T12:32:47.353Z,21.33
2023-02-07T12:35:43.153Z,21.15
2023-02-07T12:38:23.670Z,18.70
2023-02-07T12:41:15.004Z,20.00
2023-02-07T12:43:56.110Z,19.17
2023-02-07T12:46:38.324Z,19.15
2023-02-07T12:49:41.135Z,20.42
2023-02-07T12:52:39.886Z,18.88
2023-02-07T12:55:27.049Z,17.58
2023-02-07T12:58:22.768Z,16.67
2023-02-07T13:00:57.897Z,15.90
2023-02-07T13:03:51.758Z,16.45
2023-02-07T13:07:02.671Z,16.15
2023-02-07T13:09:36.169Z,15.88
2023-02-07T13:12:33.063Z,16.73
2023-02-07T13:15:06.881Z,16.23
2023-02-07T13:18:05.702Z,16.75
2023-02-07T13:20:42.112Z,18.83
2023-02-07T13:23:27.017Z,18.63
2023-02-07T13:26:06.659Z,18.70
2023-02-07T13:28:49.160Z,17.77
2023-02-07T13:31:43.023Z,16.05
2023-02-07T13:34:27.645Z,17.75
2023-02-07T13:36:58.955Z,18.15
2023-02-07T13:39:37.637Z,17.23
2023-02-07T13:42:29.549Z,18.30
2023-02-07T13:45:11.966Z,17.42
2023-02-07T13:47:51.558Z,17.80
2023-02-07T13:50:56.115Z,16.52
2023-02-07T13:53:44.030Z,17.20
2023-02-07T13:56:34.237Z,15.15
2023-02-07T13:59:28.510Z,12.68
2023-02-07T14:02:00.674Z,9.90
2023-02-07T14:05:10.479Z,9.82
2023-02-07T14:07:41.345Z,9.60
2023-02-07T14:10:39.356Z,9.63
2023-02-07T14:13:20.664Z,9.18
2023-02-07T14:15:48.703Z,9.98
2023-02-07T14:18:49.407Z,9.23
2023-02-07T14:21:20.232Z,9.45
2023-02-07T14:24:15.474Z,9.07
2023-02-07T14:26:48.547Z,9.90
2023-02-07T14:29:25.425Z,11.05
2023-02-07T14:32:28.607Z,11.30
2023-02-07T14:35:17.790Z,11.55
2023-02-07T14:37:59.178Z,11.52
2023-02-07T14:40:35.380Z,12.35
2023-02-07T14:43:21.429Z,13.75
2023-02-07T14:48:44.351Z,12.50
2023-02-07T14:51:29.276Z,13.73
2023-02-07T14:54:19.436Z,12.30
2023-02-07T14:57:03.329Z,10.95
2023-02-07T14:59:45.024Z,12.20
2023-02-07T15:02:41.607Z,12.13
2023-02-07T15:05:32.954Z,13.43
2023-02-07T15:08:03.341Z,12.13
2023-02-07T15:10:55.011Z,12.90
2023-02-07T15:13:38.343Z,12.20
2023-02-07T15:16:40.582Z,12.73
2023-02-07T15:19:36.425Z,12.10
2023-02-07T15:22:23.939Z,12.40
2023-02-07T15:24:57.874Z,13.77
2023-02-07T15:27:29.243Z,11.68
2023-02-07T15:30:08.520Z,13.77
2023-02-07T15:32:46.380Z,15.45
2023-02-07T15:35:26.830Z,15.70
2023-02-07T15:38:14.351Z,18.38
2023-02-07T15:40:42.693Z,16.73
2023-02-07T15:43:35.369Z,17.45
2023-02-07T15:46:09.379Z,18.38
2023-02-07T15:48:54.767Z,18.00
2023-02-07T15:51:27.256Z,15.73
2023-02-07T15:54:01.506Z,16.55
2023-02-07T15:56:30.764Z,15.88
2023-02-07T15:59:03.446Z,17.30
2023-02-07T16:01:31.941Z,17.27
2023-02-07T16:04:02.960Z,17.70
2023-02-07T16:06:33.009Z,18.23
2023-02-07T16:09:07.917Z,18.90
2023-02-07T16:11:40.425Z,18.20
2023-02-07T16:14:25.537Z,17.65
2023-02-07T16:16:57.012Z,19.30
2023-02-07T16:19:31.464Z,17.52
2023-02-07T16:22:12.392Z,19.33
2023-02-07T16:24:44.393Z,17.85
2023-02-07T16:27:27.528Z,18.10
2023-02-07T16:29:59.029Z,16.60
2023-02-07T16:32:34.347Z,17.42
2023-02-07T16:35:02.034Z,15.52
2023-02-07T16:37:32.427Z,15.05
2023-02-07T16:40:02.262Z,15.57
2023-02-07T16:42:32.674Z,15.45
2023-02-07T16:45:00.540Z,15.50
2023-02-07T16:47:28.240Z,15.13
2023-02-07T16:49:55.938Z,15.10
2023-02-07T16:52:23.602Z,15.50
2023-02-07T16:54:51.274Z,16.67
2023-02-07T16:57:18.924Z,15.68
2023-02-07T16:59:46.611Z,15.60
2023-02-07T17:02:16.406Z,13.70
2023-02-07T17:04:44.170Z,15.43
2023-02-07T17:07:12.342Z,15.85
2023-02-07T17:09:40.057Z,16.08
2023-02-07T17:12:09.081Z,16.10
2023-02-07T17:14:38.241Z,17.33
2023-02-07T17:17:05.936Z,17.40
2023-02-07T17:19:33.709Z,15.88
2023-02-07T17:22:01.373Z,16.90
2023-02-07T17:24:29.212Z,15.50
2023-02-07T17:26:57.282Z,15.90
2023-02-07T17:29:25.164Z,15.52
2023-02-07T17:31:52.962Z,15.38
2023-02-07T17:34:20.679Z,14.82
2023-02-07T17:36:50.255Z,16.95
2023-02-07T17:39:20.271Z,17.00
2023-02-07T17:41:48.912Z,15.48
2023-02-07T17:44:21.228Z,16.23
2023-02-07T17:46:49.461Z,16.63
2023-02-07T17:49:17.832Z,17.13
2023-02-07T17:51:45.512Z,17.80
2023-02-07T17:54:13.276Z,18.15
2023-02-07T17:56:40.996Z,19.13
2023-02-07T17:59:22.800Z,17.60
2023-02-07T18:01:51.198Z,17.90
2023-02-07T18:04:18.927Z,17.02
2023-02-07T18:06:46.689Z,15.63
2023-02-07T18:09:18.868Z,15.02
2023-02-07T18:11:47.063Z,16.83
2023-02-07T18:14:14.712Z,16.45
2023-02-07T18:16:42.626Z,17.08
2023-02-07T18:19:15.935Z,17.50
2023-02-07T18:21:44.921Z,18.65
2023-02-07T18:24:13.136Z,17.25
2023-02-07T18:26:41.009Z,17.83
2023-02-07T18:29:09.799Z,17.38
2023-02-07T18:31:38.510Z,17.60
2023-02-07T18:34:06.781Z,16.60
2023-02-07T18:36:40.186Z,18.20
2023-02-07T18:39:11.932Z,16.00
2023-02-07T18:41:39.814Z,16.85
2023-02-07T18:44:07.763Z,18.40
2023-02-07T18:46:35.526Z,17.38
2023-02-07T18:49:03.468Z,16.75
2023-02-07T18:51:31.152Z,18.42
2023-02-07T18:53:58.764Z,17.00
2023-02-07T18:56:26.847Z,17.13
2023-02-07T18:58:56.830Z,16.77
2023-02-07T19:01:27.860Z,17.30
2023-02-07T19:03:58.083Z,17.20
2023-02-07T19:06:29.907Z,17.08
2023-02-07T19:08:59.214Z,17.90
2023-02-07T19:11:27.361Z,16.40
2023-02-07T19:13:55.159Z,17.20
2023-02-07T19:16:24.544Z,17.10
2023-02-07T19:18:52.400Z,16.45
2023-02-07T19:21:27.229Z,17.02
2023-02-07T19:23:57.209Z,17.27
2023-02-07T19:26:25.629Z,18.25
2023-02-07T19:28:53.483Z,16.95
2023-02-07T19:31:22.424Z,17.75
2023-02-07T19:33:50.723Z,17.50
2023-02-07T19:36:22.252Z,16.98
2023-02-07T19:38:53.730Z,17.13
2023-02-07T19:41:24.173Z,17.00
2023-02-07T19:43:52.691Z,18.13
2023-02-07T19:46:21.425Z,17.23
2023-02-07T19:48:49.858Z,17.98
2023-02-07T19:51:29.502Z,17.98
2023-02-07T19:53:57.564Z,19.67
2023-02-07T19:56:29.823Z,20.88
2023-02-07T19:58:58.002Z,21.13
2023-02-07T20:01:26.358Z,20.95
2023-02-07T20:03:55.749Z,18.65
2023-02-07T20:06:32.871Z,18.02
2023-02-07T20:09:04.088Z,18.17
2023-02-07T20:11:32.300Z,20.30
2023-02-07T20:14:05.888Z,21.33
2023-02-07T20:16:37.410Z,19.65
2023-02-07T20:19:07.691Z,20.77
2023-02-07T20:21:37.011Z,21.80
2023-02-07T20:24:05.751Z,22.08
2023-02-07T20:26:42.984Z,19.95
2023-02-07T20:29:14.859Z,19.63
2023-02-07T20:31:44.572Z,19.88
2023-02-07T20:34:15.661Z,21.52
2023-02-07T20:36:43.846Z,20.48
2023-02-07T20:39:18.171Z,20.58
2023-02-07T20:41:47.420Z,19.90
2023-02-07T20:44:22.892Z,18.63
2023-02-07T20:49:24.982Z,19.67
2023-02-07T20:51:55.095Z,19.00
2023-02-07T20:54:26.291Z,19.75
2023-02-07T20:56:55.244Z,18.17
2023-02-07T20:59:29.610Z,17.58
2023-02-07T21:01:57.808Z,19.23
2023-02-07T21:04:26.610Z,20.90
2023-02-07T21:06:54.894Z,19.15
2023-02-07T21:09:23.200Z,19.27
2023-02-07T21:11:53.282Z,17.73
2023-02-07T21:14:30.238Z,20.27
2023-02-07T21:17:06.496Z,19.02
2023-02-07T21:19:36.510Z,19.02
2023-02-07T21:22:05.111Z,20.48
2023-02-07T21:24:33.089Z,17.95
2023-02-07T21:27:03.549Z,19.45
2023-02-07T21:29:34.045Z,19.45
2023-02-07T21:32:02.576Z,19.23
2023-02-07T21:34:30.259Z,18.25
2023-02-07T21:36:58.140Z,19.02
2023-02-07T21:39:25.828Z,18.77
2023-02-07T21:41:53.717Z,21.30
2023-02-07T21:44:22.280Z,19.60
2023-02-07T21:46:51.032Z,20.60
2023-02-07T21:49:20.751Z,19.42
2023-02-07T21:51:49.994Z,19.08
2023-02-07T21:54:17.930Z,19.02
2023-02-07T21:56:46.056Z,19.23
2023-02-07T21:59:21.004Z,19.70
2023-02-07T22:01:49.024Z,18.25
2023-02-07T22:04:17.833Z,18.88
2023-02-07T22:06:47.989Z,17.85
2023-02-07T22:09:18.602Z,19.17
2023-02-07T22:11:46.428Z,16.80
2023-02-07T22:14:14.967Z,18.27
2023-02-07T22:16:42.957Z,17.35
2023-02-07T22:19:13.742Z,18.15
2023-02-07T22:21:41.531Z,19.02
2023-02-07T22:24:12.535Z,17.58
2023-02-07T22:26:40.364Z,19.25
2023-02-07T22:29:09.075Z,17.73
2023-02-07T22:31:39.482Z,16.30
2023-02-07T22:34:13.983Z,16.58
2023-02-07T22:36:44.492Z,16.90
2023-02-07T22:39:15.191Z,17.25
2023-02-07T22:41:43.132Z,18.70
2023-02-07T22:44:11.255Z,18.23
2023-02-07T22:46:39.213Z,17.92
2023-02-07T22:49:07.196Z,18.35
2023-02-07T22:51:37.503Z,20.13
2023-02-07T22:54:09.645Z,19.08
2023-02-07T22:56:38.348Z,18.92
2023-02-07T22:59:06.294Z,19.58
2023-02-07T23:01:38.961Z,18.38
2023-02-07T23:04:15.717Z,20.20
2023-02-07T23:06:47.838Z,20.25
2023-02-07T23:09:16.331Z,19.17
2023-02-07T23:11:44.211Z,20.25
2023-02-07T23:14:12.371Z,20.15
2023-02-07T23:16:40.882Z,21.48
2023-02-07T23:19:15.216Z,21.48
2023-02-07T23:21:44.147Z,19.85
2023-02-07T23:24:11.828Z,19.75
2023-02-07T23:26:39.540Z,21.38
2023-02-07T23:29:07.391Z,21.33
2023-02-07T23:31:35.204Z,20.55
2023-02-07T23:34:03.072Z,18.10
2023-02-07T23:36:30.861Z,20.02
2023-02-07T23:38:58.572Z,18.55
2023-02-07T23:41:26.288Z,18.88
2023-02-07T23:43:54.095Z,19.52
2023-02-07T23:46:21.763Z,18.88
2023-02-07T23:48:49.552Z,19.20
2023-02-07T23:51:17.143Z,18.65
2023-02-07T23:53:45.445Z,19.05
2023-02-07T23:56:20.612Z,18.17
2023-02-07T23:58:50.044Z,18.80
